Time;durP1;ratioP1;P1;durP2;ratioP2;P2;SDS_P1;SDS_P2;PMS_P1;PMS_P2;Temp;Humidity;BMP_temperature;BMP_pressure;BME280_temperature;BME280_humidity;BME280_pressure;Samples;Min_cycle;Max_cycle;Signal;HPM_P1;HPM_P2
2023/12/31 00:01:10;;;;;;;18.75;10.20;;;;;;;;;;7374761;19;20050;-77
2023/12/31 00:03:36;;;;;;;20.05;10.30;;;;;;;;;;7367858;19;20006;-76
2023/12/31 00:06:01;;;;;;;16.42;9.27;;;;;;;;;;7370255;19;20017;-76
2023/12/31 00:08:27;;;;;;;17.08;9.15;;;;;;;;;;7391201;19;20005;-77
2023/12/31 00:10:52;;;;;;;17.35;8.77;;;;;;;;;;7368403;19;20010;-77
2023/12/31 00:13:17;;;;;;;14.85;8.55;;;;;;;;;;7368779;19;20017;-77
2023/12/31 00:15:43;;;;;;;16.65;9.05;;;;;;;;;;7368554;19;20011;-77
2023/12/31 00:18:08;;;;;;;15.07;8.98;;;;;;;;;;7367341;19;20027;-76
2023/12/31 00:20:33;;;;;;;16.27;9.60;;;;;;;;;;7390960;19;20013;-76
2023/12/31 00:22:59;;;;;;;20.63;9.77;;;;;;;;;;7368405;19;20013;-77
2023/12/31 00:25:24;;;;;;;17.33;9.55;;;;;;;;;;7366358;19;20563;-77
2023/12/31 00:27:49;;;;;;;16.48;9.50;;;;;;;;;;7364431;19;20010;-76
2023/12/31 00:30:15;;;;;;;17.17;9.05;;;;;;;;;;7367974;19;20466;-77
2023/12/31 00:32:40;;;;;;;14.18;9.13;;;;;;;;;;7389154;19;20651;-76
2023/12/31 00:35:06;;;;;;;13.10;9.02;;;;;;;;;;7367302;19;20066;-76
2023/12/31 00:37:31;;;;;;;15.32;9.82;;;;;;;;;;7368898;19;20035;-77
2023/12/31 00:39:56;;;;;;;18.58;10.27;;;;;;;;;;7367077;19;20366;-77
2023/12/31 00:42:22;;;;;;;18.63;9.32;;;;;;;;;;7366789;19;20018;-76
2023/12/31 00:44:47;;;;;;;16.58;9.50;;;;;;;;;;7391348;19;20002;-77
2023/12/31 00:47:12;;;;;;;16.65;9.15;;;;;;;;;;7367699;19;20168;-77
2023/12/31 00:49:38;;;;;;;16.58;9.82;;;;;;;;;;7367257;19;20651;-77
2023/12/31 00:52:03;;;;;;;18.55;10.13;;;;;;;;;;7371091;19;20010;-77
2023/12/31 00:54:28;;;;;;;17.55;10.02;;;;;;;;;;7365935;19;20014;-77
2023/12/31 00:56:54;;;;;;;14.00;8.80;;;;;;;;;;7385567;19;20441;-77
2023/12/31 00:59:19;;;;;;;16.23;9.90;;;;;;;;;;7385564;19;20141;-77
2023/12/31 01:01:44;;;;;;;20.33;10.27;;;;;;;;;;7376987;19;20131;-77
2023/12/31 01:04:10;;;;;;;18.13;10.40;;;;;;;;;;7375210;19;20574;-78
2023/12/31 01:06:35;;;;;;;17.55;10.70;;;;;;;;;;7375916;19;20014;-77
2023/12/31 01:09:00;;;;;;;17.38;10.23;;;;;;;;;;7371527;19;20002;-76
2023/12/31 01:11:29;;;;;;;19.30;11.00;;;;;;;;;;7398314;19;20726;-76
2023/12/31 01:13:54;;;;;;;20.58;10.93;;;;;;;;;;7371964;19;20009;-77
2023/12/31 01:16:19;;;;;;;22.40;10.95;;;;;;;;;;7373015;19;20350;-77
2023/12/31 01:18:45;;;;;;;20.95;10.88;;;;;;;;;;7384806;19;20125;-77
2023/12/31 01:21:10;;;;;;;21.30;11.23;;;;;;;;;;7382460;19;20026;-77
2023/12/31 01:23:35;;;;;;;20.27;11.00;;;;;;;;;;7398828;19;19999;-77
2023/12/31 01:26:01;;;;;;;20.00;10.80;;;;;;;;;;7378929;19;20501;-76
2023/12/31 01:28:27;;;;;;;17.35;10.20;;;;;;;;;;7376707;19;20009;-77
2023/12/31 01:30:52;;;;;;;18.33;9.75;;;;;;;;;;7380160;19;20067;-77
2023/12/31 01:33:17;;;;;;;19.27;10.40;;;;;;;;;;7376892;19;20013;-77
2023/12/31 01:35:43;;;;;;;20.05;11.10;;;;;;;;;;7393702;19;20026;-77
2023/12/31 01:38:08;;;;;;;23.13;11.15;;;;;;;;;;7369564;19;20037;-77
2023/12/31 01:40:33;;;;;;;26.08;11.68;;;;;;;;;;7371004;19;20007;-76
2023/12/31 01:42:59;;;;;;;26.23;12.27;;;;;;;;;;7369493;19;20451;-77
2023/12/31 01:45:24;;;;;;;21.90;12.13;;;;;;;;;;7372489;19;20007;-76
2023/12/31 01:47:52;;;;;;;21.65;12.40;;;;;;;;;;7392026;19;20002;-76
2023/12/31 01:50:20;;;;;;;22.45;11.65;;;;;;;;;;7370331;19;20002;-76
2023/12/31 01:52:46;;;;;;;21.05;10.23;;;;;;;;;;7369439;19;20002;-76
2023/12/31 01:55:12;;;;;;;21.40;10.52;;;;;;;;;;7371664;19;20389;-76
2023/12/31 01:57:39;;;;;;;16.75;9.85;;;;;;;;;;7370407;19;20006;-76
2023/12/31 02:00:06;;;;;;;23.83;11.98;;;;;;;;;;7371141;19;20015;-76
2023/12/31 02:02:31;;;;;;;22.75;11.90;;;;;;;;;;7392725;19;20037;-76
2023/12/31 02:04:57;;;;;;;18.85;11.23;;;;;;;;;;7370806;19;20070;-76
2023/12/31 02:07:23;;;;;;;20.25;11.05;;;;;;;;;;7370247;19;20062;-76
2023/12/31 02:09:49;;;;;;;21.23;11.30;;;;;;;;;;7371136;19;20031;-76
2023/12/31 02:12:15;;;;;;;22.15;11.25;;;;;;;;;;7371597;19;20006;-77
2023/12/31 02:14:40;;;;;;;21.85;12.60;;;;;;;;;;7389442;19;20370;-76
2023/12/31 02:17:05;;;;;;;26.35;13.40;;;;;;;;;;7369581;19;20007;-76
2023/12/31 02:19:30;;;;;;;27.90;13.35;;;;;;;;;;7370466;19;20043;-76
2023/12/31 02:21:56;;;;;;;28.55;14.48;;;;;;;;;;7370781;19;20087;-76
2023/12/31 02:24:30;;;;;;;27.02;14.20;;;;;;;;;;7369526;19;20007;-76
2023/12/31 02:26:56;;;;;;;27.73;13.85;;;;;;;;;;7369349;19;20014;-75
2023/12/31 02:29:21;;;;;;;32.05;15.07;;;;;;;;;;7391763;19;20009;-76
2023/12/31 02:31:46;;;;;;;25.90;14.18;;;;;;;;;;7370790;19;20022;-77
2023/12/31 02:34:11;;;;;;;27.40;13.95;;;;;;;;;;7374235;19;20024;-77
2023/12/31 02:36:37;;;;;;;24.08;13.77;;;;;;;;;;7373235;19;20011;-77
2023/12/31 02:39:02;;;;;;;23.58;13.50;;;;;;;;;;7370850;19;20017;-77
2023/12/31 02:41:27;;;;;;;27.15;14.20;;;;;;;;;;7392026;19;20070;-76
2023/12/31 02:43:53;;;;;;;27.88;16.38;;;;;;;;;;7368286;19;20043;-76
2023/12/31 02:46:19;;;;;;;32.42;16.55;;;;;;;;;;7370295;19;20489;-76
2023/12/31 02:48:44;;;;;;;34.35;16.23;;;;;;;;;;7365263;19;20025;-75
2023/12/31 02:51:09;;;;;;;32.70;17.25;;;;;;;;;;7370238;19;19995;-77
2023/12/31 02:53:35;;;;;;;34.88;17.85;;;;;;;;;;7390955;19;20001;-76
2023/12/31 02:56:00;;;;;;;27.10;15.98;;;;;;;;;;7375826;19;20020;-76
2023/12/31 02:58:26;;;;;;;28.42;15.80;;;;;;;;;;7367774;19;20006;-75
2023/12/31 03:00:51;;;;;;;24.05;14.10;;;;;;;;;;7369673;19;20014;-75
2023/12/31 03:03:16;;;;;;;29.30;14.48;;;;;;;;;;7368768;19;20017;-76
2023/12/31 03:05:42;;;;;;;26.85;14.85;;;;;;;;;;7390764;19;20023;-76
2023/12/31 03:08:07;;;;;;;29.63;15.10;;;;;;;;;;7367027;19;20378;-76
2023/12/31 03:10:32;;;;;;;29.27;15.48;;;;;;;;;;7368932;19;20007;-76
2023/12/31 03:12:57;;;;;;;26.85;14.95;;;;;;;;;;7368431;19;20021;-76
2023/12/31 03:15:23;;;;;;;28.88;14.98;;;;;;;;;;7369372;19;20567;-76
2023/12/31 03:17:48;;;;;;;27.67;14.23;;;;;;;;;;7390757;19;20003;-77
2023/12/31 03:20:14;;;;;;;27.58;14.65;;;;;;;;;;7366649;19;20010;-77
2023/12/31 03:22:39;;;;;;;28.23;14.70;;;;;;;;;;7368208;19;20074;-76
2023/12/31 03:25:05;;;;;;;21.02;13.40;;;;;;;;;;7367487;19;20020;-76
2023/12/31 03:27:30;;;;;;;26.98;14.27;;;;;;;;;;7367492;19;20006;-77
2023/12/31 03:29:56;;;;;;;25.45;13.75;;;;;;;;;;7369380;19;20035;-77
2023/12/31 03:32:22;;;;;;;23.77;13.38;;;;;;;;;;7390197;19;20485;-77
2023/12/31 03:34:47;;;;;;;30.02;15.77;;;;;;;;;;7373411;19;20006;-77
2023/12/31 03:37:13;;;;;;;30.52;15.10;;;;;;;;;;7375536;19;20042;-76
2023/12/31 03:39:38;;;;;;;31.20;15.32;;;;;;;;;;7368932;19;20621;-76
2023/12/31 03:42:04;;;;;;;32.05;14.77;;;;;;;;;;7366111;19;20001;-76
2023/12/31 03:44:29;;;;;;;25.45;14.43;;;;;;;;;;7387855;19;20503;-77
2023/12/31 03:46:54;;;;;;;30.02;14.45;;;;;;;;;;7365620;19;20070;-76
2023/12/31 03:49:20;;;;;;;27.50;15.30;;;;;;;;;;7367480;19;20014;-76
2023/12/31 03:51:45;;;;;;;30.83;15.10;;;;;;;;;;7368488;19;20013;-78
2023/12/31 03:54:10;;;;;;;29.55;15.50;;;;;;;;;;7368647;19;20002;-76
2023/12/31 03:56:36;;;;;;;29.33;15.48;;;;;;;;;;7391639;19;20571;-77
2023/12/31 03:59:02;;;;;;;27.48;14.27;;;;;;;;;;7368175;19;20115;-76
2023/12/31 04:01:28;;;;;;;32.88;15.43;;;;;;;;;;7369510;19;20465;-76
2023/12/31 04:03:53;;;;;;;25.95;14.68;;;;;;;;;;7369648;19;20010;-77
2023/12/31 04:06:18;;;;;;;25.55;14.30;;;;;;;;;;7373262;19;20027;-77
2023/12/31 04:08:44;;;;;;;24.17;13.57;;;;;;;;;;7393799;19;20075;-77
2023/12/31 04:11:09;;;;;;;26.30;14.40;;;;;;;;;;7371825;19;20077;-76
2023/12/31 04:13:34;;;;;;;25.25;13.88;;;;;;;;;;7372207;19;20077;-76
2023/12/31 04:16:00;;;;;;;24.38;12.93;;;;;;;;;;7372342;19;20014;-76
2023/12/31 04:18:25;;;;;;;21.30;13.00;;;;;;;;;;7369157;19;20018;-76
2023/12/31 04:20:50;;;;;;;21.88;12.93;;;;;;;;;;7390175;19;20016;-77
2023/12/31 04:23:15;;;;;;;23.60;12.75;;;;;;;;;;7368302;19;20007;-77
2023/12/31 04:25:41;;;;;;;25.63;13.20;;;;;;;;;;7367962;19;20009;-76
2023/12/31 04:28:06;;;;;;;22.30;12.65;;;;;;;;;;7367604;19;19995;-76
2023/12/31 04:30:32;;;;;;;21.10;11.68;;;;;;;;;;7369522;19;20002;-76
2023/12/31 04:32:57;;;;;;;21.20;11.88;;;;;;;;;;7368755;19;20002;-76
2023/12/31 04:35:22;;;;;;;20.83;11.60;;;;;;;;;;7391089;19;19990;-76
2023/12/31 04:37:47;;;;;;;22.55;12.73;;;;;;;;;;7369621;19;20022;-76
2023/12/31 04:40:13;;;;;;;20.55;11.35;;;;;;;;;;7369044;19;20010;-76
2023/12/31 04:42:38;;;;;;;23.30;11.75;;;;;;;;;;7367584;19;20014;-76
2023/12/31 04:45:07;;;;;;;24.15;12.95;;;;;;;;;;7367933;19;20356;-77
2023/12/31 04:47:34;;;;;;;21.83;12.23;;;;;;;;;;7387518;19;19995;-76
2023/12/31 04:49:59;;;;;;;23.85;12.80;;;;;;;;;;7365454;19;20066;-77
2023/12/31 04:52:25;;;;;;;26.88;12.00;;;;;;;;;;7366292;19;20007;-77
2023/12/31 04:54:51;;;;;;;22.65;12.48;;;;;;;;;;7365991;19;20011;-77
2023/12/31 04:57:16;;;;;;;22.65;12.60;;;;;;;;;;7365584;19;20794;-77
2023/12/31 04:59:41;;;;;;;24.98;11.60;;;;;;;;;;7387666;19;19999;-77
2023/12/31 05:02:07;;;;;;;19.92;10.73;;;;;;;;;;7365507;19;20014;-77
2023/12/31 05:04:32;;;;;;;22.60;11.77;;;;;;;;;;7364373;19;20103;-77
2023/12/31 05:06:58;;;;;;;19.58;11.48;;;;;;;;;;7366041;19;20423;-77
2023/12/31 05:09:24;;;;;;;22.00;10.90;;;;;;;;;;7366635;19;20014;-77
2023/12/31 05:11:49;;;;;;;19.17;10.48;;;;;;;;;;7389551;19;20315;-77
2023/12/31 05:14:14;;;;;;;18.70;10.90;;;;;;;;;;7364676;19;20448;-77
2023/12/31 05:16:40;;;;;;;17.98;10.32;;;;;;;;;;7364009;19;20154;-76
2023/12/31 05:19:05;;;;;;;18.23;10.52;;;;;;;;;;7364933;19;20046;-76
2023/12/31 05:21:30;;;;;;;24.35;13.13;;;;;;;;;;7365379;19;20003;-77
2023/12/31 05:23:56;;;;;;;22.15;11.80;;;;;;;;;;7367369;19;19994;-77
2023/12/31 05:26:21;;;;;;;17.67;11.70;;;;;;;;;;7387701;19;20006;-77
2023/12/31 05:28:46;;;;;;;15.68;8.85;;;;;;;;;;7364771;19;20181;-77
2023/12/31 05:31:12;;;;;;;16.70;8.75;;;;;;;;;;7365681;19;20031;-77
2023/12/31 05:33:37;;;;;;;15.73;8.15;;;;;;;;;;7366608;19;20007;-77
2023/12/31 05:36:03;;;;;;;13.65;7.38;;;;;;;;;;7366561;19;20012;-77
2023/12/31 05:38:28;;;;;;;16.58;8.57;;;;;;;;;;7391516;19;20003;-76
2023/12/31 05:40:53;;;;;;;17.73;8.25;;;;;;;;;;7365293;19;20006;-76
2023/12/31 05:43:19;;;;;;;13.82;7.95;;;;;;;;;;7367085;19;20085;-77
2023/12/31 05:45:44;;;;;;;12.10;7.63;;;;;;;;;;7373263;19;20415;-77
2023/12/31 05:48:09;;;;;;;11.70;6.95;;;;;;;;;;7371498;19;20002;-77
2023/12/31 05:50:35;;;;;;;15.68;7.78;;;;;;;;;;7395304;19;20365;-77
2023/12/31 05:53:00;;;;;;;15.60;6.95;;;;;;;;;;7382691;19;19994;-77
2023/12/31 05:55:26;;;;;;;14.10;7.22;;;;;;;;;;7389908;19;19999;-77
2023/12/31 05:57:51;;;;;;;13.57;7.30;;;;;;;;;;7375152;19;20017;-77
2023/12/31 06:00:16;;;;;;;12.45;6.95;;;;;;;;;;7377084;19;20015;-78
2023/12/31 06:02:42;;;;;;;14.32;6.93;;;;;;;;;;7397128;19;20006;-77
2023/12/31 06:05:08;;;;;;;13.45;7.18;;;;;;;;;;7372521;19;20022;-77
2023/12/31 06:07:34;;;;;;;13.40;7.00;;;;;;;;;;7371719;19;20796;-77
2023/12/31 06:09:59;;;;;;;16.48;10.27;;;;;;;;;;7373029;19;20010;-76
2023/12/31 06:12:25;;;;;;;12.93;6.88;;;;;;;;;;7371959;19;20007;-76
2023/12/31 06:14:50;;;;;;;13.52;6.13;;;;;;;;;;7396598;19;20050;-77
2023/12/31 06:17:15;;;;;;;10.93;6.70;;;;;;;;;;7374125;19;20011;-77
2023/12/31 06:19:41;;;;;;;12.55;6.85;;;;;;;;;;7374335;19;20002;-77
2023/12/31 06:22:06;;;;;;;11.65;6.30;;;;;;;;;;7371945;19;20021;-78
2023/12/31 06:24:32;;;;;;;10.73;6.20;;;;;;;;;;7369158;19;20027;-76
2023/12/31 06:26:57;;;;;;;10.98;6.53;;;;;;;;;;7370457;19;20492;-76
2023/12/31 06:29:23;;;;;;;12.95;7.47;;;;;;;;;;7391073;19;20003;-76
2023/12/31 06:31:48;;;;;;;9.10;6.05;;;;;;;;;;7371333;19;20711;-76
2023/12/31 06:34:14;;;;;;;12.85;6.72;;;;;;;;;;7371265;19;20013;-76
2023/12/31 06:36:39;;;;;;;12.27;6.05;;;;;;;;;;7371387;19;20014;-77
2023/12/31 06:39:07;;;;;;;13.55;7.20;;;;;;;;;;7374081;19;20006;-77
2023/12/31 06:41:33;;;;;;;10.45;6.82;;;;;;;;;;7393621;19;20002;-76
2023/12/31 06:43:59;;;;;;;12.48;6.50;;;;;;;;;;7372962;19;20005;-77
2023/12/31 06:46:25;;;;;;;10.63;6.75;;;;;;;;;;7375611;19;20023;-78
2023/12/31 06:48:50;;;;;;;12.98;6.47;;;;;;;;;;7373960;19;20006;-77
2023/12/31 06:51:15;;;;;;;11.07;6.20;;;;;;;;;;7372620;19;20018;-77
2023/12/31 06:53:41;;;;;;;11.20;6.35;;;;;;;;;;7392040;19;20070;-77
2023/12/31 06:56:07;;;;;;;12.82;6.38;;;;;;;;;;7368785;19;20053;-77
2023/12/31 06:58:35;;;;;;;9.32;5.85;;;;;;;;;;7370949;19;20010;-77
2023/12/31 07:01:00;;;;;;;11.38;6.07;;;;;;;;;;7373725;19;20041;-77
2023/12/31 07:03:26;;;;;;;11.60;7.05;;;;;;;;;;7370678;19;20469;-77
2023/12/31 07:05:51;;;;;;;12.82;7.35;;;;;;;;;;7392985;19;20270;-77
2023/12/31 07:08:16;;;;;;;12.93;8.43;;;;;;;;;;7370660;19;20006;-77
2023/12/31 07:10:42;;;;;;;10.82;7.10;;;;;;;;;;7373034;19;20023;-77
2023/12/31 07:13:08;;;;;;;14.00;8.20;;;;;;;;;;7372555;19;20027;-77
2023/12/31 07:15:34;;;;;;;12.65;7.55;;;;;;;;;;7372349;19;20007;-77
2023/12/31 07:18:00;;;;;;;13.65;7.20;;;;;;;;;;7370553;19;20013;-77
2023/12/31 07:20:25;;;;;;;11.38;6.40;;;;;;;;;;7391486;19;20002;-77
2023/12/31 07:22:52;;;;;;;10.98;6.45;;;;;;;;;;7370125;19;20007;-76
2023/12/31 07:25:18;;;;;;;13.77;6.50;;;;;;;;;;7369295;19;20018;-77
2023/12/31 07:27:44;;;;;;;11.63;6.57;;;;;;;;;;7369183;19;20799;-77
2023/12/31 07:30:09;;;;;;;10.38;7.10;;;;;;;;;;7370236;19;20044;-77
2023/12/31 07:32:35;;;;;;;11.05;7.00;;;;;;;;;;7392244;19;20025;-76
2023/12/31 07:35:00;;;;;;;11.80;6.70;;;;;;;;;;7364932;19;20872;-75
2023/12/31 07:37:25;;;;;;;13.18;8.73;;;;;;;;;;7364521;19;20016;-74
2023/12/31 07:39:51;;;;;;;15.43;9.70;;;;;;;;;;7362354;19;20400;-74
2023/12/31 07:42:16;;;;;;;14.85;9.73;;;;;;;;;;7364113;19;20526;-76
2023/12/31 07:44:42;;;;;;;10.90;6.63;;;;;;;;;;7385642;19;20544;-75
2023/12/31 07:47:07;;;;;;;10.98;7.05;;;;;;;;;;7365590;19;20478;-76
2023/12/31 07:49:33;;;;;;;12.05;6.90;;;;;;;;;;7365987;19;20046;-76
2023/12/31 07:51:59;;;;;;;13.88;8.13;;;;;;;;;;7361265;19;20379;-77
2023/12/31 07:54:25;;;;;;;12.15;6.38;;;;;;;;;;7369189;19;20054;-76
2023/12/31 07:56:51;;;;;;;11.30;6.10;;;;;;;;;;7393641;19;20017;-76
2023/12/31 07:59:16;;;;;;;10.50;6.68;;;;;;;;;;7368762;19;20469;-76
2023/12/31 08:01:42;;;;;;;15.43;7.35;;;;;;;;;;7372228;19;20508;-75
2023/12/31 08:04:08;;;;;;;12.05;5.88;;;;;;;;;;7365928;19;20009;-76
2023/12/31 08:06:33;;;;;;;9.65;5.88;;;;;;;;;;7366768;19;20003;-76
2023/12/31 08:08:59;;;;;;;10.15;5.45;;;;;;;;;;7366299;19;19998;-76
2023/12/31 08:11:25;;;;;;;10.07;5.18;;;;;;;;;;7404151;19;20091;-76
2023/12/31 08:13:50;;;;;;;8.23;4.80;;;;;;;;;;7372748;19;20382;-76
2023/12/31 08:16:16;;;;;;;9.65;5.50;;;;;;;;;;7366368;19;20033;-76
2023/12/31 08:18:41;;;;;;;10.70;5.75;;;;;;;;;;7366556;19;20408;-76
2023/12/31 08:21:06;;;;;;;8.38;5.03;;;;;;;;;;7367372;19;20450;-77
2023/12/31 08:23:32;;;;;;;10.57;5.45;;;;;;;;;;7388076;19;20153;-76
2023/12/31 08:25:58;;;;;;;8.43;5.07;;;;;;;;;;7366892;19;20019;-76
2023/12/31 08:28:23;;;;;;;9.77;5.30;;;;;;;;;;7364620;19;20027;-76
2023/12/31 08:30:49;;;;;;;10.02;4.93;;;;;;;;;;7367297;19;20587;-78
2023/12/31 08:33:14;;;;;;;10.73;5.70;;;;;;;;;;7365338;19;20067;-77
2023/12/31 08:35:43;;;;;;;8.30;4.88;;;;;;;;;;7397874;19;19999;-78
2023/12/31 08:38:09;;;;;;;11.57;5.97;;;;;;;;;;7375501;19;20010;-78
2023/12/31 08:40:34;;;;;;;9.52;5.32;;;;;;;;;;7364434;19;20017;-76
2023/12/31 08:43:01;;;;;;;10.70;4.90;;;;;;;;;;7364399;19;20363;-76
2023/12/31 08:45:26;;;;;;;9.77;5.32;;;;;;;;;;7363132;19;19998;-76
2023/12/31 08:47:52;;;;;;;10.00;5.90;;;;;;;;;;7385746;19;20006;-75
2023/12/31 08:50:18;;;;;;;11.93;5.93;;;;;;;;;;7359529;19;20002;-76
2023/12/31 08:52:46;;;;;;;8.93;5.20;;;;;;;;;;7362316;19;20028;-76
2023/12/31 08:55:12;;;;;;;10.30;5.22;;;;;;;;;;7359403;19;20009;-75
2023/12/31 08:57:47;;;;;;;10.07;5.90;;;;;;;;;;7362846;19;20118;-76
2023/12/31 09:00:13;;;;;;;8.85;4.97;;;;;;;;;;7360186;19;19995;-77
2023/12/31 09:02:38;;;;;;;9.40;5.30;;;;;;;;;;7391303;19;20013;-77
2023/12/31 09:05:04;;;;;;;10.68;4.68;;;;;;;;;;7368384;19;20407;-77
2023/12/31 09:07:30;;;;;;;9.23;5.47;;;;;;;;;;7370232;19;20517;-76
2023/12/31 09:09:55;;;;;;;7.85;4.53;;;;;;;;;;7366667;19;20006;-76
2023/12/31 09:12:21;;;;;;;8.70;4.93;;;;;;;;;;7367649;19;20010;-77
2023/12/31 09:14:46;;;;;;;8.52;4.68;;;;;;;;;;7390898;19;20003;-77
2023/12/31 09:17:11;;;;;;;9.05;5.03;;;;;;;;;;7365684;19;20002;-74
2023/12/31 09:19:38;;;;;;;10.27;5.18;;;;;;;;;;7367529;19;20014;-73
2023/12/31 09:22:03;;;;;;;9.63;4.82;;;;;;;;;;7368575;19;20006;-73
2023/12/31 09:24:30;;;;;;;7.00;4.22;;;;;;;;;;7366176;19;20487;-73
2023/12/31 09:26:55;;;;;;;10.60;4.60;;;;;;;;;;7374666;19;20006;-74
2023/12/31 09:29:20;;;;;;;8.90;4.90;;;;;;;;;;7387309;19;20009;-73
2023/12/31 09:31:46;;;;;;;9.10;5.15;;;;;;;;;;7369402;19;20472;-75
2023/12/31 09:34:11;;;;;;;7.45;4.40;;;;;;;;;;7368000;19;20007;-73
2023/12/31 09:36:37;;;;;;;7.40;4.35;;;;;;;;;;7368612;19;20420;-74
2023/12/31 09:39:02;;;;;;;8.73;4.15;;;;;;;;;;7373204;19;20007;-76
2023/12/31 09:41:28;;;;;;;8.52;4.47;;;;;;;;;;7399495;19;20021;-77
2023/12/31 09:43:56;;;;;;;8.50;4.70;;;;;;;;;;7370740;19;20026;-74
2023/12/31 09:46:22;;;;;;;7.40;4.57;;;;;;;;;;7373959;19;20147;-74
2023/12/31 09:48:49;;;;;;;8.85;4.88;;;;;;;;;;7369283;19;20500;-74
2023/12/31 09:51:17;;;;;;;10.38;4.40;;;;;;;;;;7368457;19;20545;-75
2023/12/31 09:53:45;;;;;;;8.52;4.38;;;;;;;;;;7387521;19;20010;-75
2023/12/31 09:56:11;;;;;;;12.27;4.80;;;;;;;;;;7367497;19;20433;-75
2023/12/31 09:58:37;;;;;;;9.38;5.03;;;;;;;;;;7366294;19;20118;-76
2023/12/31 10:01:03;;;;;;;8.40;5.20;;;;;;;;;;7371277;19;20017;-76
2023/12/31 10:03:28;;;;;;;9.32;4.50;;;;;;;;;;7364385;19;20010;-76
2023/12/31 10:05:56;;;;;;;8.60;4.82;;;;;;;;;;7387047;19;20034;-76
2023/12/31 10:08:21;;;;;;;9.57;5.07;;;;;;;;;;7387156;19;20009;-76
2023/12/31 10:10:48;;;;;;;8.30;4.50;;;;;;;;;;7367808;19;20006;-75
2023/12/31 10:13:17;;;;;;;8.55;4.80;;;;;;;;;;7366445;19;20037;-76
2023/12/31 10:15:43;;;;;;;8.20;4.65;;;;;;;;;;7368190;19;20018;-76
2023/12/31 10:18:09;;;;;;;9.63;5.20;;;;;;;;;;7368358;19;20046;-76
2023/12/31 10:20:38;;;;;;;6.75;4.10;;;;;;;;;;7396444;19;20009;-76
2023/12/31 10:23:04;;;;;;;7.85;4.82;;;;;;;;;;7371613;19;20010;-76
2023/12/31 10:25:30;;;;;;;8.75;4.10;;;;;;;;;;7369185;19;20081;-75
2023/12/31 10:27:55;;;;;;;10.13;4.32;;;;;;;;;;7373514;19;20366;-76
2023/12/31 10:30:21;;;;;;;6.93;4.10;;;;;;;;;;7383123;19;20014;-76
2023/12/31 10:32:48;;;;;;;7.53;4.00;;;;;;;;;;7391427;19;20006;-75
2023/12/31 10:35:18;;;;;;;7.75;4.35;;;;;;;;;;7364293;19;20003;-75
2023/12/31 10:37:43;;;;;;;7.40;3.88;;;;;;;;;;7365553;19;20002;-75
2023/12/31 10:40:35;;;;;;;7.13;4.28;;;;;;;;;;7364840;19;20481;-75
2023/12/31 10:43:06;;;;;;;8.73;4.38;;;;;;;;;;7365712;19;20102;-75
2023/12/31 10:45:33;;;;;;;8.70;4.50;;;;;;;;;;7366582;19;20014;-75
2023/12/31 10:48:01;;;;;;;6.90;4.40;;;;;;;;;;7365635;19;20017;-74
2023/12/31 10:50:27;;;;;;;9.77;4.35;;;;;;;;;;7386507;19;20074;-74
2023/12/31 10:52:57;;;;;;;7.68;4.45;;;;;;;;;;7365464;19;20035;-74
2023/12/31 10:55:23;;;;;;;10.00;4.63;;;;;;;;;;7364267;19;20002;-75
2023/12/31 10:57:50;;;;;;;6.68;3.90;;;;;;;;;;7367012;19;20021;-75
2023/12/31 11:00:16;;;;;;;7.15;4.70;;;;;;;;;;7369574;19;20681;-75
2023/12/31 11:02:43;;;;;;;8.23;4.43;;;;;;;;;;7388499;19;20022;-75
2023/12/31 11:05:09;;;;;;;9.52;4.70;;;;;;;;;;7362396;19;20364;-75
2023/12/31 11:07:35;;;;;;;8.45;4.20;;;;;;;;;;7364254;19;20031;-79
2023/12/31 11:10:02;;;;;;;5.95;3.17;;;;;;;;;;7371095;19;19998;-79
2023/12/31 11:12:27;;;;;;;7.95;3.55;;;;;;;;;;7367810;19;20967;-78
2023/12/31 11:15:03;;;;;;;6.40;3.35;;;;;;;;;;7394714;19;20001;-79
2023/12/31 11:17:50;;;;;;;8.60;3.80;;;;;;;;;;7363853;19;20003;-74
2023/12/31 11:20:34;;;;;;;12.88;8.07;;;;;;;;;;7365504;19;20181;-75
2023/12/31 11:23:03;;;;;;;8.57;4.72;;;;;;;;;;7364901;19;20007;-76
2023/12/31 11:25:31;;;;;;;9.68;4.50;;;;;;;;;;7365161;19;20010;-76
2023/12/31 11:27:57;;;;;;;7.45;4.43;;;;;;;;;;7363795;19;20381;-75
2023/12/31 11:30:48;;;;;;;6.72;3.90;;;;;;;;;;7363469;19;20135;-75
2023/12/31 11:33:17;;;;;;;6.10;3.60;;;;;;;;;;7362051;19;20001;-76
2023/12/31 11:35:44;;;;;;;6.05;3.42;;;;;;;;;;7382898;19;20014;-75
2023/12/31 11:38:09;;;;;;;6.47;3.33;;;;;;;;;;7363007;19;20010;-75
2023/12/31 11:40:39;;;;;;;5.40;2.80;;;;;;;;;;7361085;19;20006;-75
2023/12/31 11:43:13;;;;;;;4.18;2.28;;;;;;;;;;7361916;19;20357;-74
2023/12/31 11:45:41;;;;;;;5.60;2.30;;;;;;;;;;7365749;19;20475;-73
2023/12/31 11:48:24;;;;;;;6.03;2.35;;;;;;;;;;7365682;19;20035;-79
2023/12/31 11:50:51;;;;;;;7.35;2.03;;;;;;;;;;7396653;19;20027;-78
2023/12/31 11:53:17;;;;;;;10.40;2.30;;;;;;;;;;7370916;19;20010;-78
2023/12/31 11:55:45;;;;;;;3.42;1.80;;;;;;;;;;7372307;19;20033;-79
2023/12/31 11:58:10;;;;;;;3.67;1.60;;;;;;;;;;7376365;19;20006;-78
2023/12/31 12:00:37;;;;;;;2.90;1.60;;;;;;;;;;7375082;19;20006;-80
2023/12/31 12:03:02;;;;;;;2.88;1.38;;;;;;;;;;7372661;19;20006;-82
2023/12/31 12:05:28;;;;;;;4.72;1.58;;;;;;;;;;7398614;19;19998;-80
2023/12/31 12:07:54;;;;;;;2.92;1.40;;;;;;;;;;7377881;19;20013;-80
2023/12/31 12:10:21;;;;;;;3.13;1.48;;;;;;;;;;7376789;19;20015;-80
2023/12/31 12:12:46;;;;;;;4.00;1.77;;;;;;;;;;7371656;19;20537;-79
2023/12/31 12:15:12;;;;;;;4.18;1.70;;;;;;;;;;7374406;19;20006;-80
2023/12/31 12:17:37;;;;;;;3.60;1.75;;;;;;;;;;7397106;19;20007;-82
2023/12/31 12:20:04;;;;;;;3.05;1.50;;;;;;;;;;7375651;19;20024;-80
2023/12/31 12:22:30;;;;;;;8.70;1.88;;;;;;;;;;7375482;19;20003;-81
2023/12/31 12:24:56;;;;;;;3.17;1.63;;;;;;;;;;7375393;19;20027;-80
2023/12/31 12:27:22;;;;;;;5.25;1.80;;;;;;;;;;7367936;19;20018;-80
2023/12/31 12:29:47;;;;;;;3.97;1.60;;;;;;;;;;7389292;19;19999;-78
2023/12/31 12:32:22;;;;;;;2.60;1.70;;;;;;;;;;7373522;19;20250;-78
2023/12/31 12:34:49;;;;;;;4.18;1.75;;;;;;;;;;7375246;19;20009;-78
2023/12/31 12:37:15;;;;;;;11.25;4.40;;;;;;;;;;7384974;19;20010;-79
2023/12/31 12:39:40;;;;;;;6.35;2.58;;;;;;;;;;7373327;19;20010;-80
2023/12/31 12:42:05;;;;;;;3.95;1.60;;;;;;;;;;7372809;19;20050;-79
2023/12/31 12:44:33;;;;;;;2.40;1.48;;;;;;;;;;7390560;19;20339;-77
2023/12/31 12:47:02;;;;;;;3.67;1.50;;;;;;;;;;7393605;19;20002;-80
2023/12/31 12:49:27;;;;;;;3.47;1.50;;;;;;;;;;7382967;19;20006;-79
2023/12/31 12:51:52;;;;;;;4.28;1.35;;;;;;;;;;7375311;19;20119;-79
2023/12/31 12:54:17;;;;;;;2.88;1.30;;;;;;;;;;7377397;19;20078;-79
2023/12/31 12:56:44;;;;;;;3.78;1.40;;;;;;;;;;7402202;19;20060;-80
2023/12/31 12:59:10;;;;;;;3.60;1.42;;;;;;;;;;7381413;19;20883;-79
2023/12/31 13:01:36;;;;;;;3.70;1.58;;;;;;;;;;7381721;19;20026;-79
2023/12/31 13:04:02;;;;;;;2.38;1.30;;;;;;;;;;7383593;19;20006;-80
2023/12/31 13:06:27;;;;;;;4.53;1.60;;;;;;;;;;7384990;19;20016;-80
2023/12/31 13:08:54;;;;;;;7.47;1.85;;;;;;;;;;7398775;19;19995;-79
2023/12/31 13:11:19;;;;;;;3.70;1.40;;;;;;;;;;7377792;19;20011;-80
2023/12/31 13:13:47;;;;;;;3.47;1.45;;;;;;;;;;7382093;19;20014;-80
2023/12/31 13:16:13;;;;;;;5.57;1.55;;;;;;;;;;7384430;19;20047;-79
2023/12/31 13:18:40;;;;;;;3.33;1.63;;;;;;;;;;7386094;19;20002;-80
2023/12/31 13:21:05;;;;;;;4.43;1.70;;;;;;;;;;7385949;19;20033;-79
2023/12/31 13:23:31;;;;;;;4.63;1.80;;;;;;;;;;7405079;19;19994;-79
2023/12/31 13:25:56;;;;;;;5.63;2.50;;;;;;;;;;7388402;19;20002;-79
2023/12/31 13:28:21;;;;;;;6.00;2.20;;;;;;;;;;7382978;19;20094;-78
2023/12/31 13:30:47;;;;;;;6.10;1.80;;;;;;;;;;7373726;19;20003;-78
2023/12/31 13:33:15;;;;;;;4.47;1.98;;;;;;;;;;7375409;19;19999;-78
2023/12/31 13:35:41;;;;;;;4.22;1.90;;;;;;;;;;7407039;19;20013;-79
2023/12/31 13:38:16;;;;;;;3.40;1.33;;;;;;;;;;7388102;19;20003;-79
2023/12/31 13:40:42;;;;;;;5.50;2.22;;;;;;;;;;7390021;19;20002;-78
2023/12/31 13:43:08;;;;;;;4.97;1.80;;;;;;;;;;7385698;19;20003;-79
2023/12/31 13:45:33;;;;;;;3.47;1.83;;;;;;;;;;7380455;19;20011;-76
2023/12/31 13:48:00;;;;;;;2.67;1.60;;;;;;;;;;7381433;19;20019;-77
2023/12/31 13:50:26;;;;;;;7.20;1.90;;;;;;;;;;7402648;19;20009;-77
2023/12/31 13:52:51;;;;;;;5.78;2.00;;;;;;;;;;7384047;19;20038;-78
2023/12/31 13:55:16;;;;;;;8.35;2.20;;;;;;;;;;7383899;19;20037;-77
2023/12/31 13:57:42;;;;;;;5.00;2.00;;;;;;;;;;7392948;19;20007;-77
2023/12/31 14:00:08;;;;;;;5.13;2.25;;;;;;;;;;7384025;19;20555;-77
2023/12/31 14:02:33;;;;;;;6.53;3.00;;;;;;;;;;7405976;19;20006;-76
2023/12/31 14:04:59;;;;;;;6.07;2.05;;;;;;;;;;7379407;19;20010;-77
2023/12/31 14:07:24;;;;;;;5.22;2.20;;;;;;;;;;7378435;19;20010;-77
2023/12/31 14:09:49;;;;;;;5.03;1.95;;;;;;;;;;7380007;19;20011;-77
2023/12/31 14:12:22;;;;;;;5.35;2.92;;;;;;;;;;7378204;19;20021;-76
2023/12/31 14:14:48;;;;;;;6.43;1.75;;;;;;;;;;7397264;19;20003;-76
2023/12/31 14:17:14;;;;;;;6.68;2.40;;;;;;;;;;7373384;19;19999;-77
2023/12/31 14:19:40;;;;;;;15.23;8.98;;;;;;;;;;7385195;19;20010;-77
2023/12/31 14:22:06;;;;;;;8.00;5.18;;;;;;;;;;7380813;19;20006;-77
2023/12/31 14:24:32;;;;;;;11.15;8.07;;;;;;;;;;7380236;19;20003;-76